Time,TemperatureF,DewpointF,PressureIn,WindDirection,WindDirectionDegrees,WindSpeedMPH,WindSpeedGustMPH,Humidity,HourlyPrecipIn,Conditions,Clouds,dailyrainin,SoftwareType,DateUTC
2013-06-12 00:03:00,77.1,69.0,29.73,NNE,33,0.0,0.0,76,0.00,,,0.00,weatherlink.com 1.10,2013-06-12 05:03:00,
2013-06-12 00:18:00,77.0,69.0,29.73,ENE,78,0.0,0.0,76,0.00,,,0.00,weatherlink.com 1.10,2013-06-12 05:18:00,
2013-06-12 00:33:00,76.5,69.0,29.71,SE,129,0.0,0.0,77,0.00,,,0.00,weatherlink.com 1.10,2013-06-12 05:33:00,
2013-06-12 00:48:00,76.1,69.0,29.73,NE,35,0.0,0.0,78,0.00,,,0.00,weatherlink.com 1.10,2013-06-12 05:48:00,
2013-06-12 01:03:00,75.8,69.0,29.74,NNE,24,0.0,0.0,79,0.00,,,0.00,weatherlink.com 1.10,2013-06-12 06:03:00,
2013-06-12 01:18:00,75.1,69.0,29.73,NE,40,0.0,0.0,80,0.00,,,0.00,weatherlink.com 1.10,2013-06-12 06:18:00,
2013-06-12 01:33:00,74.1,68.0,29.73,NE,54,0.0,0.0,81,0.00,,,0.00,weatherlink.com 1.10,2013-06-12 06:33:00,
2013-06-12 01:48:00,73.1,68.0,29.72,NE,43,0.0,0.0,84,0.00,,,0.00,weatherlink.com 1.10,2013-06-12 06:48:00,
2013-06-12 02:03:00,72.6,68.0,29.70,NE,42,0.0,0.0,85,0.00,,,0.00,weatherlink.com 1.10,2013-06-12 07:03:00,
2013-06-12 02:18:00,72.5,68.0,29.70,ENE,78,0.0,0.0,85,0.00,,,0.00,weatherlink.com 1.10,2013-06-12 07:18:00,
2013-06-12 02:33:00,72.3,68.0,29.71,SE,132,0.0,0.0,85,0.00,,,0.00,weatherlink.com 1.10,2013-06-12 07:33:00,
2013-06-12 02:49:00,72.5,67.0,29.69,ENE,78,0.0,0.0,84,0.00,,,0.00,weatherlink.com 1.10,2013-06-12 07:49:00,
2013-06-12 03:04:00,72.4,67.0,29.70,ENE,78,0.0,0.0,84,0.00,,,0.00,weatherlink.com 1.10,2013-06-12 08:04:00,
2013-06-12 03:19:00,72.1,67.0,29.71,SSE,157,0.0,0.0,85,0.00,,,0.00,weatherlink.com 1.10,2013-06-12 08:19:00,
2013-06-12 03:34:00,72.1,68.0,29.77,SSW,210,0.0,0.0,87,0.01,,,0.01,weatherlink.com 1.10,2013-06-12 08:34:00,
2013-06-12 03:49:00,70.6,68.0,29.76,SSE,167,0.0,0.0,92,0.40,,,0.40,weatherlink.com 1.10,2013-06-12 08:49:00,
2013-06-12 04:04:00,70.3,69.0,29.76,SW,215,0.0,0.0,94,0.44,,,0.44,weatherlink.com 1.10,2013-06-12 09:04:00,
2013-06-12 04:19:00,70.1,68.0,29.72,East,100,0.0,0.0,94,0.46,,,0.46,weatherlink.com 1.10,2013-06-12 09:19:00,
2013-06-12 04:34:00,70.0,69.0,29.70,South,172,0.0,0.0,95,0.44,,,0.46,weatherlink.com 1.10,2013-06-12 09:34:00,
2013-06-12 04:49:00,69.9,69.0,29.70,South,180,0.0,0.0,95,0.06,,,0.46,weatherlink.com 1.10,2013-06-12 09:49:00,
2013-06-12 05:04:00,69.9,69.0,29.67,SE,143,0.0,0.0,95,0.02,,,0.46,weatherlink.com 1.10,2013-06-12 10:04:00,
2013-06-12 05:19:00,70.0,69.0,29.64,South,175,0.0,0.0,95,0.00,,,0.46,weatherlink.com 1.10,2013-06-12 10:19:00,
2013-06-12 05:34:00,70.0,69.0,29.64,South,184,0.0,0.0,95,0.00,,,0.46,weatherlink.com 1.10,2013-06-12 10:34:00,
2013-06-12 05:49:00,70.0,69.0,29.64,SSW,202,0.0,0.0,95,0.00,,,0.46,weatherlink.com 1.10,2013-06-12 10:49:00,
2013-06-12 06:04:00,69.9,69.0,29.62,SSE,153,0.0,0.0,95,0.00,,,0.46,weatherlink.com 1.10,2013-06-12 11:04:00,
2013-06-12 06:19:00,69.9,69.0,29.61,South,173,0.0,0.0,95,0.00,,,0.46,weatherlink.com 1.10,2013-06-12 11:19:00,
2013-06-12 06:34:00,69.7,68.0,29.64,South,191,0.0,0.0,95,0.00,,,0.46,weatherlink.com 1.10,2013-06-12 11:34:00,
2013-06-12 06:49:00,69.9,68.0,29.68,South,188,0.0,0.0,94,0.00,,,0.46,weatherlink.com 1.10,2013-06-12 11:49:00,
2013-06-12 07:04:00,69.9,68.0,29.66,ENE,76,0.0,0.0,94,0.00,,,0.46,weatherlink.com 1.10,2013-06-12 12:04:00,
2013-06-12 07:19:00,69.9,68.0,29.65,ESE,105,0.0,0.0,94,0.00,,,0.46,weatherlink.com 1.10,2013-06-12 12:19:00,
2013-06-12 07:34:00,70.1,68.0,29.65,ENE,62,0.0,0.0,94,0.00,,,0.46,weatherlink.com 1.10,2013-06-12 12:34:00,
2013-06-12 07:49:00,70.8,69.0,29.66,ENE,77,0.0,0.0,93,0.00,,,0.46,weatherlink.com 1.10,2013-06-12 12:49:00,
2013-06-12 08:04:00,72.1,70.0,29.66,SE,124,0.0,0.0,92,0.00,,,0.46,weatherlink.com 1.10,2013-06-12 13:04:00,
2013-06-12 08:19:00,73.0,70.0,29.67,East,79,0.0,0.0,89,0.00,,,0.46,weatherlink.com 1.10,2013-06-12 13:19:00,
2013-06-12 08:34:00,73.4,70.0,29.68,South,180,0.0,0.0,89,0.00,,,0.46,weatherlink.com 1.10,2013-06-12 13:34:00,
2013-06-12 08:49:00,74.3,70.0,29.67,South,181,0.0,0.0,86,0.00,,,0.46,weatherlink.com 1.10,2013-06-12 13:49:00,
2013-06-12 09:04:00,74.6,70.0,29.66,South,190,0.0,0.0,86,0.00,,,0.46,weatherlink.com 1.10,2013-06-12 14:04:00,
2013-06-12 09:19:00,76.1,71.0,29.66,SSE,160,0.0,0.0,83,0.00,,,0.46,weatherlink.com 1.10,2013-06-12 14:19:00,
2013-06-12 09:34:00,76.2,71.0,29.65,ESE,117,0.0,0.0,83,0.00,,,0.46,weatherlink.com 1.10,2013-06-12 14:34:00,
2013-06-12 09:49:00,77.8,71.0,29.65,SE,124,0.0,0.0,79,0.00,,,0.46,weatherlink.com 1.10,2013-06-12 14:49:00,
2013-06-12 10:04:00,79.6,71.0,29.65,ESE,107,0.0,0.0,76,0.00,,,0.46,weatherlink.com 1.10,2013-06-12 15:04:00,
2013-06-12 10:19:00,78.0,71.0,29.65,ENE,76,0.0,0.0,78,0.00,,,0.46,weatherlink.com 1.10,2013-06-12 15:19:00,
2013-06-12 10:34:00,76.9,70.0,29.65,ENE,63,0.0,0.0,80,0.00,,,0.46,weatherlink.com 1.10,2013-06-12 15:34:00,
2013-06-12 10:49:00,76.8,71.0,29.65,NNE,32,0.0,0.0,81,0.00,,,0.46,weatherlink.com 1.10,2013-06-12 15:49:00,
2013-06-12 11:04:00,77.1,71.0,29.65,NNE,29,0.0,0.0,81,0.00,,,0.46,weatherlink.com 1.10,2013-06-12 16:04:00,
2013-06-12 11:19:00,76.9,71.0,29.65,NE,38,0.0,0.0,82,0.00,,,0.46,weatherlink.com 1.10,2013-06-12 16:19:00,
2013-06-12 11:34:00,77.9,72.0,29.65,ENE,69,0.0,0.0,81,0.00,,,0.46,weatherlink.com 1.10,2013-06-12 16:34:00,
2013-06-12 11:49:00,80.7,73.0,29.65,SSE,152,0.0,0.0,76,0.00,,,0.46,weatherlink.com 1.10,2013-06-12 16:49:00,
2013-06-12 12:04:00,81.0,72.0,29.65,ENE,74,0.0,0.0,74,0.00,,,0.46,weatherlink.com 1.10,2013-06-12 17:04:00,
2013-06-12 12:19:00,81.6,73.0,29.64,ENE,69,0.0,0.0,74,0.00,,,0.46,weatherlink.com 1.10,2013-06-12 17:19:00,
2013-06-12 12:34:00,82.0,72.0,29.64,NNE,14,0.0,0.0,72,0.00,,,0.46,weatherlink.com 1.10,2013-06-12 17:34:00,
2013-06-12 12:49:00,81.1,73.0,29.64,East,82,0.0,0.0,75,0.00,,,0.46,weatherlink.com 1.10,2013-06-12 17:49:00,
2013-06-12 13:04:00,82.2,73.0,29.64,ENE,76,0.0,0.0,73,0.00,,,0.46,weatherlink.com 1.10,2013-06-12 18:04:00,
2013-06-12 13:34:00,82.8,72.0,29.63,NNW,342,0.0,0.0,70,0.00,,,0.46,weatherlink.com 1.10,2013-06-12 18:34:00,
2013-06-12 13:50:00,82.9,73.0,29.64,NW,323,0.0,0.0,72,0.00,,,0.46,weatherlink.com 1.10,2013-06-12 18:50:00,
2013-06-12 14:05:00,80.8,73.0,29.64,NNE,17,0.0,0.0,77,0.00,,,0.46,weatherlink.com 1.10,2013-06-12 19:05:00,
2013-06-12 14:20:00,79.6,73.0,29.64,NNW,340,0.0,0.0,80,0.00,,,0.46,weatherlink.com 1.10,2013-06-12 19:20:00,
2013-06-12 14:35:00,78.7,72.0,29.64,North,355,0.0,0.0,81,0.00,,,0.46,weatherlink.com 1.10,2013-06-12 19:35:00,
2013-06-12 14:50:00,78.6,73.0,29.65,WNW,298,0.0,0.0,82,0.00,,,0.46,weatherlink.com 1.10,2013-06-12 19:50:00,
2013-06-12 15:05:00,77.9,72.0,29.65,NNE,18,0.0,0.0,82,0.00,,,0.46,weatherlink.com 1.10,2013-06-12 20:05:00,
2013-06-12 15:20:00,77.1,72.0,29.65,NW,311,0.0,0.0,83,0.00,,,0.46,weatherlink.com 1.10,2013-06-12 20:20:00,
2013-06-12 15:35:00,76.8,71.0,29.66,NNW,348,0.0,0.0,83,0.00,,,0.46,weatherlink.com 1.10,2013-06-12 20:35:00,
2013-06-12 15:50:00,76.0,71.0,29.66,WNW,298,0.0,0.0,85,0.00,,,0.46,weatherlink.com 1.10,2013-06-12 20:50:00,
2013-06-12 16:05:00,76.5,71.0,29.65,NNW,333,0.0,0.0,84,0.00,,,0.46,weatherlink.com 1.10,2013-06-12 21:05:00,
2013-06-12 16:20:00,76.4,71.0,29.65,NW,311,0.0,0.0,84,0.00,,,0.46,weatherlink.com 1.10,2013-06-12 21:20:00,
2013-06-12 16:35:00,76.4,71.0,29.64,WNW,295,0.0,0.0,83,0.00,,,0.46,weatherlink.com 1.10,2013-06-12 21:35:00,
2013-06-12 16:50:00,74.9,70.0,29.65,NW,310,0.0,0.0,84,0.00,,,0.46,weatherlink.com 1.10,2013-06-12 21:50:00,
2013-06-12 17:05:00,69.7,65.0,29.66,NW,325,0.0,0.0,85,0.00,,,0.46,weatherlink.com 1.10,2013-06-12 22:05:00,
2013-06-12 17:20:00,67.4,63.0,29.68,WNW,301,0.0,0.0,86,0.00,,,0.46,weatherlink.com 1.10,2013-06-12 22:20:00,
2013-06-12 17:35:00,66.3,62.0,29.69,NW,311,0.0,0.0,85,0.00,,,0.46,weatherlink.com 1.10,2013-06-12 22:35:00,
2013-06-12 17:50:00,65.2,61.0,29.70,North,355,0.0,0.0,87,0.00,,,0.46,weatherlink.com 1.10,2013-06-12 22:50:00,
2013-06-12 18:05:00,64.6,61.0,29.71,North,5,0.0,0.0,87,0.00,,,0.46,weatherlink.com 1.10,2013-06-12 23:05:00,
2013-06-12 18:20:00,64.3,61.0,29.71,WNW,300,0.0,0.0,88,0.00,,,0.46,weatherlink.com 1.10,2013-06-12 23:20:00,
2013-06-12 18:35:00,63.8,60.0,29.72,North,5,0.0,0.0,88,0.00,,,0.46,weatherlink.com 1.10,2013-06-12 23:35:00,
2013-06-12 18:50:00,62.9,60.0,29.73,WNW,293,0.0,0.0,90,0.00,,,0.46,weatherlink.com 1.10,2013-06-12 23:50:00,
2013-06-12 19:05:00,62.8,60.0,29.73,North,349,0.0,0.0,90,0.00,,,0.46,weatherlink.com 1.10,2013-06-13 00:05:00,
2013-06-12 19:20:00,63.4,60.0,29.73,North,351,0.0,0.0,88,0.00,,,0.46,weatherlink.com 1.10,2013-06-13 00:20:00,
2013-06-12 19:35:00,63.7,61.0,29.74,NNW,336,0.0,0.0,89,0.00,,,0.46,weatherlink.com 1.10,2013-06-13 00:35:00,
2013-06-12 19:50:00,63.1,60.0,29.75,North,360,0.0,0.0,89,0.00,,,0.46,weatherlink.com 1.10,2013-06-13 00:50:00,
2013-06-12 20:05:00,63.0,59.0,29.75,NNW,347,0.0,0.0,88,0.00,,,0.46,weatherlink.com 1.10,2013-06-13 01:05:00,
2013-06-12 20:20:00,62.2,59.0,29.76,North,355,0.0,0.0,89,0.00,,,0.46,weatherlink.com 1.10,2013-06-13 01:20:00,
2013-06-12 20:35:00,62.4,59.0,29.77,NW,321,0.0,0.0,87,0.00,,,0.46,weatherlink.com 1.10,2013-06-13 01:35:00,
2013-06-12 20:50:00,63.2,58.0,29.78,NNE,28,0.0,0.0,84,0.00,,,0.46,weatherlink.com 1.10,2013-06-13 01:50:00,
2013-06-12 21:05:00,63.4,59.0,29.78,North,355,0.0,0.0,84,0.00,,,0.46,weatherlink.com 1.10,2013-06-13 02:05:00,
2013-06-12 21:20:00,63.7,59.0,29.79,NNW,341,0.0,0.0,84,0.00,,,0.46,weatherlink.com 1.10,2013-06-13 02:20:00,
2013-06-12 21:35:00,64.2,58.0,29.81,NNW,330,0.0,0.0,81,0.00,,,0.46,weatherlink.com 1.10,2013-06-13 02:35:00,